createdAt,value
2022-12-08T00:01:24.481Z,101018.38
2022-12-08T00:03:53.189Z,101018.34
2022-12-08T00:06:42.924Z,101034.41
2022-12-08T00:09:24.860Z,101015.13
2022-12-08T00:11:55.080Z,101015.09
2022-12-08T00:14:27.498Z,101011.59
2022-12-08T00:16:55.562Z,101009.94
2022-12-08T00:19:23.996Z,101009.94
2022-12-08T00:21:52.617Z,101008.25
2022-12-08T00:24:21.185Z,101002.97
2022-12-08T00:26:49.384Z,101005.56
2022-12-08T00:29:17.966Z,100990.69
2022-12-08T00:31:47.739Z,100988.94
2022-12-08T00:34:16.147Z,100984.56
2022-12-08T00:36:44.447Z,100979.19
2022-12-08T00:39:13.497Z,100971.38
2022-12-08T00:41:58.661Z,100976.56
2022-12-08T00:44:26.456Z,100969.47
2022-12-08T00:46:55.739Z,100967.88
2022-12-08T00:49:23.845Z,100967.88
2022-12-08T00:51:51.899Z,100959.09
2022-12-08T00:54:20.008Z,100946.81
2022-12-08T00:56:47.881Z,100943.25
2022-12-08T00:59:16.116Z,100945.19
2022-12-08T01:01:45.536Z,100943.34
2022-12-08T01:04:17.076Z,100940.75
2022-12-08T01:06:45.659Z,100943.47
2022-12-08T01:09:14.951Z,100950.53
2022-12-08T01:11:44.355Z,100948.81
2022-12-08T01:14:12.380Z,100940.97
2022-12-08T01:16:41.433Z,100933.03
2022-12-08T01:19:11.182Z,100936.56
2022-12-08T01:21:41.041Z,100939.19
2022-12-08T01:24:12.475Z,100932.97
2022-12-08T01:26:40.568Z,100937.38
2022-12-08T01:29:08.373Z,100919.25
2022-12-08T01:31:36.218Z,100930.41
2022-12-08T01:34:04.248Z,100923.97
2022-12-08T01:36:33.439Z,100927.50
2022-12-08T01:39:03.647Z,100937.38
2022-12-08T01:41:33.589Z,100935.56
2022-12-08T01:44:03.172Z,100938.19
2022-12-08T01:46:32.333Z,100938.13
2022-12-08T01:49:04.923Z,100939.06
2022-12-08T01:51:36.848Z,100936.50
2022-12-08T01:54:08.222Z,100945.16
2022-12-08T01:56:40.776Z,100942.56
2022-12-08T01:59:08.752Z,100940.81
2022-12-08T02:01:36.855Z,100934.44
2022-12-08T02:04:05.319Z,100937.84
2022-12-08T02:06:37.316Z,100927.38
2022-12-08T02:09:07.150Z,100934.31
2022-12-08T02:11:35.248Z,100935.94
2022-12-08T02:14:06.842Z,100925.53
2022-12-08T02:16:43.443Z,100925.56
2022-12-08T02:19:43.387Z,100924.75
2022-12-08T02:22:15.831Z,100914.41
2022-12-08T02:24:50.398Z,100907.34
2022-12-08T02:27:39.072Z,100905.78
2022-12-08T02:30:24.822Z,100900.59
2022-12-08T02:33:28.661Z,100902.34
2022-12-08T02:36:06.067Z,100889.19
2022-12-08T02:38:45.258Z,100886.63
2022-12-08T02:41:25.582Z,100885.75
2022-12-08T02:44:01.715Z,100892.81
2022-12-08T02:46:33.709Z,100887.53
2022-12-08T02:49:02.152Z,100893.78
2022-12-08T02:51:31.306Z,100886.72
2022-12-08T02:53:59.840Z,100879.69
2022-12-08T02:56:42.617Z,100876.19
2022-12-08T02:59:26.777Z,100877.09
2022-12-08T03:02:08.052Z,100872.69
2022-12-08T03:04:44.487Z,100868.34
2022-12-08T03:07:21.115Z,100877.00
2022-12-08T03:09:57.653Z,100869.06
2022-12-08T03:12:31.817Z,100871.88
2022-12-08T03:15:07.808Z,100871.06
2022-12-08T03:17:37.817Z,100867.59
2022-12-08T03:20:10.315Z,100868.47
2022-12-08T03:22:42.633Z,100861.44
2022-12-08T03:25:14.284Z,100854.41
2022-12-08T03:27:42.721Z,100844.69
2022-12-08T03:30:11.353Z,100847.38
2022-12-08T03:32:47.488Z,100849.09
2022-12-08T03:35:17.746Z,100841.22
2022-12-08T03:37:46.959Z,100834.16
2022-12-08T03:40:17.842Z,100838.59
2022-12-08T03:42:45.604Z,100834.25
2022-12-08T03:45:13.535Z,100829.06
2022-12-08T03:47:41.325Z,100826.44
2022-12-08T03:50:09.708Z,100821.16
2022-12-08T03:52:37.517Z,100822.06
2022-12-08T03:55:07.964Z,100820.34
2022-12-08T03:57:35.684Z,100809.75
2022-12-08T04:00:04.562Z,100811.53
2022-12-08T04:02:32.676Z,100815.13
2022-12-08T04:05:00.516Z,100812.56
2022-12-08T04:07:28.359Z,100809.06
2022-12-08T04:09:56.116Z,100808.94
2022-12-08T04:12:25.305Z,100813.34
2022-12-08T04:14:53.098Z,100816.88
2022-12-08T04:17:20.852Z,100802.03
2022-12-08T04:19:48.611Z,100809.00
2022-12-08T04:22:16.452Z,100812.38
2022-12-08T04:24:44.244Z,100807.19
2022-12-08T04:27:12.032Z,100804.63
2022-12-08T04:29:42.075Z,100800.25
2022-12-08T04:32:09.823Z,100799.25
2022-12-08T04:34:37.592Z,100794.91
2022-12-08T04:37:05.300Z,100786.13
2022-12-08T04:39:33.136Z,100780.91
2022-12-08T04:42:00.888Z,100783.44
2022-12-08T04:44:28.603Z,100781.69
2022-12-08T04:46:57.811Z,100782.47
2022-12-08T04:49:25.644Z,100781.63
2022-12-08T04:51:53.448Z,100781.56
2022-12-08T04:54:21.253Z,100766.72
2022-12-08T04:56:49.131Z,100765.81
2022-12-08T04:59:16.887Z,100761.41
2022-12-08T05:01:44.842Z,100770.28
2022-12-08T05:04:14.088Z,100765.75
2022-12-08T05:06:41.907Z,100771.13
2022-12-08T05:09:10.087Z,100759.63
2022-12-08T05:11:48.338Z,100764.81
2022-12-08T05:14:18.866Z,100761.06
2022-12-08T05:16:47.222Z,100762.91
2022-12-08T05:19:17.177Z,100754.16
2022-12-08T05:21:45.589Z,100757.63
2022-12-08T05:24:13.464Z,100758.56
2022-12-08T05:26:41.242Z,100755.69
2022-12-08T05:29:09.016Z,100761.88
2022-12-08T05:31:36.868Z,100751.28
2022-12-08T05:34:04.944Z,100751.28
2022-12-08T05:36:34.200Z,100752.13
2022-12-08T05:39:02.000Z,100746.03
2022-12-08T05:41:29.769Z,100748.72
2022-12-08T05:43:57.600Z,100744.44
2022-12-08T05:46:25.427Z,100738.56
2022-12-08T05:48:53.260Z,100730.31
2022-12-08T05:51:24.142Z,100727.75
2022-12-08T05:53:54.132Z,100722.50
2022-12-08T05:56:22.791Z,100720.59
2022-12-08T05:58:51.018Z,100723.44
2022-12-08T06:01:23.448Z,100718.22
2022-12-08T06:03:51.653Z,100718.09
2022-12-08T06:06:19.662Z,100720.69
2022-12-08T06:08:47.512Z,100711.84
2022-12-08T06:11:21.939Z,100717.19
2022-12-08T06:13:50.107Z,100724.28
2022-12-08T06:16:18.645Z,100713.88
2022-12-08T06:18:46.497Z,100719.25
2022-12-08T06:21:16.241Z,100708.63
2022-12-08T06:23:44.547Z,100716.44
2022-12-08T06:26:14.168Z,100713.88
2022-12-08T06:28:44.065Z,100720.00
2022-12-08T06:31:14.632Z,100721.78
2022-12-08T06:33:42.785Z,100715.41
2022-12-08T06:36:12.935Z,100717.13
2022-12-08T06:38:43.664Z,100717.03
2022-12-08T06:41:13.101Z,100709.31
2022-12-08T06:43:41.993Z,100706.44
2022-12-08T06:46:15.009Z,100699.56
2022-12-08T06:48:42.914Z,100705.53
2022-12-08T06:51:12.602Z,100702.25
2022-12-08T06:53:41.179Z,100703.13
2022-12-08T06:56:09.723Z,100698.91
2022-12-08T06:58:37.943Z,100694.81
2022-12-08T07:01:07.714Z,100691.09
2022-12-08T07:03:37.317Z,100676.97
2022-12-08T07:06:05.928Z,100680.47
2022-12-08T07:08:34.273Z,100676.06
2022-12-08T07:11:07.918Z,100687.47
2022-12-08T07:13:35.531Z,100676.75
2022-12-08T07:16:06.625Z,100683.63
2022-12-08T07:18:35.932Z,100682.06
2022-12-08T07:21:05.210Z,100682.13
2022-12-08T07:23:33.011Z,100690.75
2022-12-08T07:26:03.247Z,100683.81
2022-12-08T07:28:32.628Z,100683.75
2022-12-08T07:31:00.898Z,100678.69
2022-12-08T07:33:29.077Z,100675.97
2022-12-08T07:36:00.074Z,100685.94
2022-12-08T07:38:29.136Z,100677.00
2022-12-08T07:40:56.978Z,100676.13
2022-12-08T07:43:25.012Z,100680.81
2022-12-08T07:45:53.146Z,100687.44
2022-12-08T07:48:21.017Z,100699.03
2022-12-08T07:50:49.220Z,100689.97
2022-12-08T07:53:18.417Z,100696.78
2022-12-08T07:55:46.324Z,100693.25
2022-12-08T07:58:14.102Z,100695.22
2022-12-08T08:00:41.891Z,100686.34
2022-12-08T08:03:11.429Z,100676.44
2022-12-08T08:05:39.560Z,100678.16
2022-12-08T08:08:07.579Z,100686.72
2022-12-08T08:10:36.806Z,100681.34
2022-12-08T08:13:07.529Z,100668.25
2022-12-08T08:15:35.629Z,100660.28
2022-12-08T08:18:03.575Z,100662.31
2022-12-08T08:20:31.350Z,100665.94
2022-12-08T08:22:59.189Z,100658.75
2022-12-08T08:25:26.963Z,100651.25
2022-12-08T08:27:56.800Z,100655.44
2022-12-08T08:30:26.009Z,100651.00
2022-12-08T08:32:53.942Z,100650.06
2022-12-08T08:35:21.747Z,100647.34
2022-12-08T08:37:49.797Z,100649.63
2022-12-08T08:40:18.377Z,100662.69
2022-12-08T08:42:46.173Z,100656.97
2022-12-08T08:45:15.396Z,100660.34
2022-12-08T08:47:43.209Z,100658.50
2022-12-08T08:50:11.322Z,100651.81
2022-12-08T08:52:39.075Z,100639.31
2022-12-08T08:55:07.900Z,100639.38
2022-12-08T08:57:35.731Z,100633.16
2022-12-08T09:00:05.153Z,100634.25
2022-12-08T09:02:34.625Z,100633.31
2022-12-08T09:05:02.487Z,100632.91
2022-12-08T09:07:30.434Z,100635.50
2022-12-08T09:10:01.813Z,100634.72
2022-12-08T09:12:29.990Z,100638.25
2022-12-08T09:14:57.772Z,100635.41
2022-12-08T09:17:25.550Z,100638.13
2022-12-08T09:19:54.670Z,100637.34
2022-12-08T09:22:23.726Z,100635.75
2022-12-08T09:24:51.527Z,100633.38
2022-12-08T09:27:19.568Z,100625.31
2022-12-08T09:29:47.427Z,100621.66
2022-12-08T09:32:15.207Z,100630.31
2022-12-08T09:34:45.357Z,100627.25
2022-12-08T09:37:18.338Z,100627.28
2022-12-08T09:39:46.098Z,100624.41
2022-12-08T09:42:14.761Z,100626.91
2022-12-08T09:44:57.398Z,100622.38
2022-12-08T09:47:35.313Z,100612.25
2022-12-08T09:50:08.453Z,100618.19
2022-12-08T09:52:42.653Z,100617.97
2022-12-08T09:55:18.039Z,100618.00
2022-12-08T09:57:45.915Z,100611.13
2022-12-08T10:00:15.322Z,100616.88
2022-12-08T10:02:45.639Z,100624.00
2022-12-08T10:05:15.715Z,100615.25
2022-12-08T10:07:48.488Z,100622.97
2022-12-08T10:10:29.244Z,100619.66
2022-12-08T10:13:05.332Z,100631.81
2022-12-08T10:15:45.422Z,100626.22
2022-12-08T10:18:17.207Z,100628.88
2022-12-08T10:20:47.310Z,100629.19
2022-12-08T10:23:28.656Z,100624.88
2022-12-08T10:26:01.603Z,100623.16
2022-12-08T10:28:29.475Z,100617.16
2022-12-08T10:30:57.482Z,100614.91
2022-12-08T10:33:25.362Z,100608.84
2022-12-08T10:35:55.119Z,100596.28
2022-12-08T10:38:28.277Z,100596.84
2022-12-08T10:41:04.089Z,100602.97
2022-12-08T10:43:33.091Z,100597.38
2022-12-08T10:46:10.973Z,100590.53
2022-12-08T10:48:49.285Z,100591.47
2022-12-08T10:51:25.251Z,100592.41
2022-12-08T10:53:54.573Z,100585.84
2022-12-08T10:56:26.523Z,100575.88
2022-12-08T10:59:08.388Z,100567.28
2022-12-08T11:01:40.153Z,100569.88
2022-12-08T11:04:15.498Z,100568.09
2022-12-08T11:06:43.821Z,100565.34
2022-12-08T11:09:35.684Z,100559.22
2022-12-08T11:12:09.885Z,100562.06
2022-12-08T11:14:48.936Z,100558.03
2022-12-08T11:17:24.414Z,100557.19
2022-12-08T11:19:58.576Z,100549.91
2022-12-08T11:22:30.894Z,100559.16
2022-12-08T11:25:02.789Z,100552.22
2022-12-08T11:27:30.929Z,100552.66
2022-12-08T11:29:58.765Z,100552.44
2022-12-08T11:32:26.733Z,100542.81
2022-12-08T11:34:59.094Z,100545.81
2022-12-08T11:37:35.175Z,100536.44
2022-12-08T11:40:08.823Z,100532.06
2022-12-08T11:42:39.542Z,100525.69
2022-12-08T11:45:13.827Z,100514.91
2022-12-08T11:47:49.041Z,100512.41
2022-12-08T11:50:25.731Z,100511.88
2022-12-08T11:52:53.608Z,100511.31
2022-12-08T11:55:37.055Z,100513.09
2022-12-08T11:58:17.685Z,100508.38
2022-12-08T12:00:45.637Z,100500.00
2022-12-08T12:03:26.506Z,100500.56
2022-12-08T12:09:14.780Z,100493.13
2022-12-08T12:12:11.974Z,100501.38
2022-12-08T12:14:58.514Z,100497.56
2022-12-08T12:17:40.844Z,100496.00
2022-12-08T12:20:18.484Z,100481.06
2022-12-08T12:22:50.697Z,100481.44
2022-12-08T12:25:22.683Z,100493.19
2022-12-08T12:27:57.312Z,100497.81
2022-12-08T12:30:27.696Z,100491.41
2022-12-08T12:32:59.391Z,100482.56
2022-12-08T12:35:34.343Z,100478.28
2022-12-08T12:38:25.703Z,100466.50
2022-12-08T12:41:01.488Z,100458.06
2022-12-08T12:43:33.380Z,100458.00
2022-12-08T12:46:34.793Z,100455.16
2022-12-08T12:49:35.760Z,100454.19
2022-12-08T12:52:03.693Z,100439.19
2022-12-08T12:54:31.553Z,100439.50
2022-12-08T12:57:22.478Z,100442.59
2022-12-08T13:00:09.466Z,100445.16
2022-12-08T13:02:40.873Z,100442.72
2022-12-08T13:05:12.391Z,100445.75
2022-12-08T13:07:46.069Z,100439.78
2022-12-08T13:10:20.470Z,100436.31
2022-12-08T13:13:04.548Z,100434.94
2022-12-08T13:15:38.100Z,100433.78
2022-12-08T13:18:06.632Z,100428.91
2022-12-08T13:20:43.363Z,100427.66
2022-12-08T13:23:27.816Z,100422.22
2022-12-08T13:26:13.011Z,100422.72
2022-12-08T13:29:14.995Z,100426.19
2022-12-08T13:31:50.676Z,100427.72
2022-12-08T13:34:23.612Z,100417.63
2022-12-08T13:37:01.240Z,100410.59
2022-12-08T13:39:33.508Z,100408.28
2022-12-08T13:42:07.030Z,100393.25
2022-12-08T13:45:18.716Z,100391.19
2022-12-08T13:47:34.683Z,100383.03
2022-12-08T13:51:10.536Z,100382.41
2022-12-08T13:58:39.673Z,100364.88
2022-12-08T14:01:11.878Z,100367.91
2022-12-08T14:04:20.393Z,100361.84
2022-12-08T14:06:42.861Z,100351.31
2022-12-08T14:09:15.818Z,100348.16
2022-12-08T14:11:47.768Z,100349.03
2022-12-08T14:14:32.613Z,100349.19
2022-12-08T14:17:10.897Z,100345.16
2022-12-08T14:19:40.705Z,100344.53
2022-12-08T14:22:13.084Z,100346.53
2022-12-08T14:24:45.108Z,100342.66
2022-12-08T14:27:17.301Z,100334.19
2022-12-08T14:29:47.390Z,100338.41
2022-12-08T14:32:24.504Z,100340.53
2022-12-08T14:34:55.749Z,100329.75
2022-12-08T14:37:26.167Z,100328.31
2022-12-08T14:39:58.610Z,100324.22
2022-12-08T14:42:28.199Z,100318.88
2022-12-08T14:45:07.581Z,100319.78
2022-12-08T14:47:36.073Z,100323.34
2022-12-08T14:50:27.391Z,100323.50
2022-12-08T14:52:55.203Z,100317.03
2022-12-08T14:55:23.076Z,100323.38
2022-12-08T14:57:51.013Z,100308.47
2022-12-08T15:00:23.341Z,100308.84
2022-12-08T15:02:51.395Z,100314.78
2022-12-08T15:05:22.297Z,100310.91
2022-12-08T15:07:52.498Z,100306.25
2022-12-08T15:10:25.124Z,100307.03
2022-12-08T15:13:05.707Z,100307.25
2022-12-08T15:15:48.118Z,100310.69
2022-12-08T15:18:18.464Z,100316.31
2022-12-08T15:20:51.084Z,100308.13
2022-12-08T15:23:22.772Z,100307.63
2022-12-08T15:25:50.996Z,100308.47
2022-12-08T15:28:22.068Z,100310.78
2022-12-08T15:30:53.550Z,100315.16
2022-12-08T15:33:21.537Z,100308.22
2022-12-08T15:35:51.396Z,100312.94
2022-12-08T15:38:23.119Z,100312.09
2022-12-08T15:40:50.955Z,100311.69
2022-12-08T15:43:18.701Z,100305.91
2022-12-08T15:45:58.030Z,100312.78
2022-12-08T15:48:29.502Z,100302.78
2022-12-08T15:50:58.779Z,100302.91
2022-12-08T15:53:26.942Z,100294.41
2022-12-08T15:58:58.788Z,100282.03
2022-12-08T16:01:27.284Z,100288.28
2022-12-08T16:09:39.381Z,100284.09
2022-12-08T16:12:25.496Z,100277.91
2022-12-08T16:17:42.037Z,100291.44
2022-12-08T16:20:14.789Z,100284.09
2022-12-08T16:22:54.460Z,100283.72
2022-12-08T16:25:36.408Z,100275.84
2022-12-08T16:28:45.335Z,100278.00
2022-12-08T16:31:02.145Z,100275.53
2022-12-08T16:33:30.069Z,100283.63
2022-12-08T16:35:57.796Z,100286.28
2022-12-08T16:38:27.098Z,100287.41
2022-12-08T16:41:08.692Z,100290.94
2022-12-08T16:43:36.572Z,100283.63
2022-12-08T16:46:04.605Z,100282.13
2022-12-08T16:48:32.638Z,100279.75
2022-12-08T16:51:00.420Z,100285.34
2022-12-08T16:53:29.606Z,100293.19
2022-12-08T16:55:57.377Z,100291.25
2022-12-08T16:58:25.164Z,100292.16
2022-12-08T17:00:53.205Z,100279.59
2022-12-08T17:03:21.148Z,100276.59
2022-12-08T17:05:48.980Z,100272.94
2022-12-08T17:08:16.951Z,100269.94
2022-12-08T17:11:06.183Z,100267.84
2022-12-08T17:13:34.336Z,100265.19
2022-12-08T17:16:02.145Z,100264.75
2022-12-08T17:18:29.966Z,100267.50
2022-12-08T17:20:57.777Z,100265.41
2022-12-08T17:23:25.554Z,100265.88
2022-12-08T17:26:00.252Z,100262.44
2022-12-08T17:28:51.946Z,100258.03
2022-12-08T17:31:17.481Z,100257.06
2022-12-08T17:33:45.876Z,100256.28
2022-12-08T17:36:15.742Z,100258.06
2022-12-08T17:38:44.045Z,100256.25
2022-12-08T17:41:13.292Z,100257.16
2022-12-08T17:43:41.299Z,100271.25
2022-12-08T17:46:09.151Z,100274.84
2022-12-08T17:48:37.174Z,100265.84
2022-12-08T17:51:04.970Z,100262.34
2022-12-08T17:53:37.234Z,100275.19
2022-12-08T17:56:05.687Z,100270.88
2022-12-08T17:58:35.333Z,100275.09
2022-12-08T18:01:08.458Z,100272.44
2022-12-08T18:03:36.316Z,100277.78
2022-12-08T18:06:06.183Z,100278.44
2022-12-08T18:08:33.951Z,100283.03
2022-12-08T18:11:01.755Z,100271.59
2022-12-08T18:13:29.613Z,100269.06
2022-12-08T18:15:59.129Z,100277.34
2022-12-08T18:18:26.952Z,100270.22
2022-12-08T18:20:54.699Z,100272.78
2022-12-08T18:23:22.632Z,100275.84
2022-12-08T18:25:50.327Z,100274.94
2022-12-08T18:28:18.071Z,100275.09
2022-12-08T18:30:45.924Z,100269.69
2022-12-08T18:33:15.007Z,100272.19
2022-12-08T18:35:42.958Z,100279.09
2022-12-08T18:38:10.751Z,100269.31
2022-12-08T18:40:38.671Z,100272.97
2022-12-08T18:43:06.532Z,100268.53
2022-12-08T18:45:36.753Z,100264.13
2022-12-08T18:48:05.201Z,100264.16
2022-12-08T18:50:34.395Z,100249.72
2022-12-08T18:53:02.212Z,100257.88
2022-12-08T18:55:29.960Z,100254.50
2022-12-08T18:57:57.810Z,100260.63
2022-12-08T19:00:25.761Z,100248.72
2022-12-08T19:02:53.590Z,100252.41
2022-12-08T19:05:21.532Z,100248.31
2022-12-08T19:07:52.170Z,100239.78
2022-12-08T19:10:20.047Z,100238.97
2022-12-08T19:12:50.888Z,100238.75
2022-12-08T19:15:18.798Z,100234.31
2022-12-08T19:17:46.834Z,100230.09
2022-12-08T19:20:15.527Z,100225.22
2022-12-08T19:22:43.269Z,100230.38
2022-12-08T19:25:12.467Z,100221.13
2022-12-08T19:27:40.188Z,100221.06
2022-12-08T19:30:09.736Z,100222.56
2022-12-08T19:32:37.684Z,100221.22
2022-12-08T19:35:07.468Z,100227.91
2022-12-08T19:37:35.648Z,100226.44
2022-12-08T19:40:21.073Z,100227.38
2022-12-08T19:43:07.673Z,100225.38
2022-12-08T19:45:36.633Z,100223.97
2022-12-08T19:48:06.200Z,100229.03
2022-12-08T19:50:37.304Z,100225.00
2022-12-08T19:53:07.185Z,100222.13
2022-12-08T19:55:35.452Z,100214.19
2022-12-08T19:58:04.938Z,100222.28
2022-12-08T20:00:34.454Z,100219.81
2022-12-08T20:03:03.357Z,100218.47
2022-12-08T20:05:32.140Z,100217.72
2022-12-08T20:08:00.311Z,100210.13
2022-12-08T20:10:30.412Z,100216.28
2022-12-08T20:13:12.213Z,100211.25
2022-12-08T20:15:41.978Z,100211.69
2022-12-08T20:18:10.084Z,100209.94
2022-12-08T20:20:38.025Z,100207.59
2022-12-08T20:23:05.905Z,100202.53
2022-12-08T20:25:33.675Z,100209.22
2022-12-08T20:28:01.598Z,100207.44
2022-12-08T20:30:29.474Z,100213.34
2022-12-08T20:32:58.837Z,100205.09
2022-12-08T20:35:26.755Z,100217.69
2022-12-08T20:37:54.627Z,100217.25
2022-12-08T20:40:22.354Z,100218.00
2022-12-08T20:42:50.138Z,100218.59
2022-12-08T20:45:17.963Z,100223.69
2022-12-08T20:47:45.807Z,100212.63
2022-12-08T20:50:15.223Z,100217.16
2022-12-08T20:52:43.122Z,100212.56
2022-12-08T20:55:11.700Z,100214.38
2022-12-08T20:57:39.560Z,100217.06
2022-12-08T21:00:08.782Z,100212.63
2022-12-08T21:02:43.266Z,100209.28
2022-12-08T21:05:16.501Z,100214.19
2022-12-08T21:07:45.175Z,100211.19
2022-12-08T21:10:13.276Z,100212.59
2022-12-08T21:12:41.213Z,100209.38
2022-12-08T21:15:12.044Z,100208.94
2022-12-08T21:17:39.973Z,100197.50
2022-12-08T21:20:09.432Z,100203.53
2022-12-08T21:22:39.892Z,100202.34
2022-12-08T21:25:09.273Z,100202.22
2022-12-08T21:27:38.127Z,100200.94
2022-12-08T21:30:07.725Z,100206.31
2022-12-08T21:32:36.163Z,100206.06
2022-12-08T21:35:04.352Z,100207.28
2022-12-08T21:37:32.291Z,100206.63
2022-12-08T21:40:01.488Z,100203.88
2022-12-08T21:42:47.258Z,100204.88
2022-12-08T21:45:16.890Z,100206.38
2022-12-08T21:47:45.273Z,100203.78
2022-12-08T21:50:14.685Z,100212.00
2022-12-08T21:52:44.783Z,100209.34
2022-12-08T21:55:14.725Z,100210.16
2022-12-08T21:57:42.808Z,100208.03
2022-12-08T22:00:16.169Z,100210.59
2022-12-08T22:02:44.938Z,100201.16
2022-12-08T22:05:13.050Z,100202.16
2022-12-08T22:07:42.021Z,100198.69
2022-12-08T22:10:11.529Z,100186.66
2022-12-08T22:12:41.454Z,100189.31
2022-12-08T22:15:11.350Z,100195.09
2022-12-08T22:17:41.298Z,100191.50
2022-12-08T22:20:12.435Z,100193.16
2022-12-08T22:22:40.958Z,100191.38
2022-12-08T22:25:12.684Z,100188.91
2022-12-08T22:27:42.682Z,100177.94
2022-12-08T22:30:11.983Z,100183.13
2022-12-08T22:32:40.322Z,100190.38
2022-12-08T22:35:08.828Z,100185.59
2022-12-08T22:37:36.633Z,100182.00
2022-12-08T22:40:05.376Z,100187.81
2022-12-08T22:42:33.527Z,100180.81
2022-12-08T22:45:02.832Z,100192.19
2022-12-08T22:47:30.655Z,100182.00
2022-12-08T22:49:58.612Z,100186.69
2022-12-08T22:52:26.469Z,100187.59
2022-12-08T22:54:54.321Z,100181.25
2022-12-08T22:57:22.311Z,100188.81
2022-12-08T22:59:50.241Z,100184.59
2022-12-08T23:02:19.385Z,100190.03
2022-12-08T23:04:47.317Z,100194.44
2022-12-08T23:07:15.646Z,100198.66
2022-12-08T23:09:44.441Z,100192.19
2022-12-08T23:12:12.281Z,100193.75
2022-12-08T23:14:40.092Z,100189.38
2022-12-08T23:17:08.333Z,100199.44
2022-12-08T23:19:39.434Z,100198.88
2022-12-08T23:22:07.500Z,100195.94
2022-12-08T23:24:35.348Z,100198.81
2022-12-08T23:27:03.268Z,100192.91
2022-12-08T23:29:31.402Z,100188.06
2022-12-08T23:31:59.329Z,100187.66
2022-12-08T23:34:27.352Z,100186.63
2022-12-08T23:36:56.460Z,100172.41
2022-12-08T23:39:24.766Z,100174.72
2022-12-08T23:41:52.904Z,100176.72
2022-12-08T23:44:20.830Z,100173.94
2022-12-08T23:46:48.687Z,100168.47
2022-12-08T23:49:16.950Z,100170.56
2022-12-08T23:51:44.808Z,100173.13
2022-12-08T23:54:13.935Z,100165.78
2022-12-08T23:56:42.208Z,100166.00
2022-12-08T23:59:10.139Z,100160.50
